Terminal Aerodrome Forecast
Issued by NWS Portland, OR

Home | Current Version | Previous Version | Text Only | Print | Product List | Glossary On
Versions: 1 2 3 4 5 6 7 8 9 10 11 12 13 14 15 16 17 18 19 20 21 22 23 24 25
000
FTUS46 KPQR 231750 RRA
TAFEUG
TAF
KEUG 231750Z 2318/2418 17005KT P6SM BKN250
     FM232000 17006KT P6SM SCT080 OVC150
     FM232200 17006KT P6SM SCT040 OVC080
     FM240200 16007KT P6SM -SN SCT025 BKN035 OVC050
     FM240400 16008KT 5SM -RASN SCT015 BKN025 OVC040
     FM240900 19012KT P6SM -RA SCT015 BKN025 OVC040
     FM241100 22012KT P6SM -RA SCT015 BKN025 OVC040
     FM241500 25015KT P6SM -RA SCT025 OVC040=

USA.gov is the U.S. government's official web portal to all federal, state and local government web resources and services.